Airport View

Enter AWOS ICAO identifier for current METAR.

ex. KFNL

KAUN 192055Z AUTO VRB06KT 9SM CLR 29/12 A2997 RMK A01

19 Aug 2019 21:07

Frequency: 119.375

Phone: 530-888-8934

Other Area AWOS: KLHM - KGOO - KBAB - KPVF

TAF KBAB 191115Z 1911/2017 18009KT 9999 SKC QNH2984INS TX32/1923Z TN12/1913Z